Tallassee, Alabama
Current Conditions -  °F | °C
As of 6:35 PM on Saturday 25 Oct 2014 (Local Time) from KALX Reporting Station
Clear Clear  
Wind Chill: 63°   Ceiling: Unl
Heat Index: 63°   Visibility: 10mi
Dew Point: 56°   Wind: 0mph
Humidity: 76%   Direction: NA
Pressure: 30.05"   Gusts: NA
Location:  32.54°N, 85.89°W
Report Text: KALX 252335Z AUTO 00000KT 10SM CLR 17/13 A3005 RMK AO2 T01730131
Loading
Personal Weather Stations






























Interactive Weather Map
Tropical Storm Tracking
New forecast layout! Learn more

10-Day Weather Forecast

Advertisements
Track Severe Weather on mobile